createdAt,value
2018-01-13T00:01:20.705Z,67.57
2018-01-13T00:03:48.444Z,72.93
2018-01-13T00:06:16.216Z,71.50
2018-01-13T00:08:43.973Z,75.13
2018-01-13T00:11:11.726Z,72.10
2018-01-13T00:13:40.237Z,69.97
2018-01-13T00:16:07.984Z,68.50
2018-01-13T00:18:35.737Z,66.63
2018-01-13T00:21:03.626Z,68.80
2018-01-13T00:23:31.354Z,70.90
2018-01-13T00:25:59.066Z,68.27
2018-01-13T00:28:26.912Z,71.90
2018-01-13T00:30:54.754Z,75.03
2018-01-13T00:33:23.472Z,75.90
2018-01-13T00:35:51.294Z,79.30
2018-01-13T00:38:19.017Z,76.73
2018-01-13T00:40:46.736Z,75.83
2018-01-13T00:43:15.197Z,70.37
2018-01-13T00:45:42.892Z,75.83
2018-01-13T00:48:11.356Z,72.30
2018-01-13T00:50:39.949Z,68.17
2018-01-13T00:53:08.560Z,82.80
2018-01-13T00:55:36.294Z,79.30
2018-01-13T00:58:04.882Z,73.13
2018-01-13T01:00:33.458Z,82.27
2018-01-13T01:03:02.037Z,77.17
2018-01-13T01:05:29.756Z,77.73
2018-01-13T01:07:57.472Z,79.60
2018-01-13T01:10:26.036Z,79.20
2018-01-13T01:12:53.876Z,76.70
2018-01-13T01:15:21.758Z,77.80
2018-01-13T01:17:50.067Z,78.70
2018-01-13T01:20:18.652Z,80.77
2018-01-13T01:22:46.358Z,78.37
2018-01-13T01:25:14.126Z,87.73
2018-01-13T01:27:41.856Z,83.87
2018-01-13T01:30:09.563Z,83.90
2018-01-13T01:32:37.290Z,81.03
2018-01-13T01:35:05.024Z,83.20
2018-01-13T01:37:33.601Z,84.47
2018-01-13T01:40:02.163Z,76.53
2018-01-13T01:42:29.875Z,86.63
2018-01-13T01:44:57.578Z,79.07
2018-01-13T01:47:25.299Z,91.23
2018-01-13T01:49:53.002Z,87.37
2018-01-13T01:52:20.780Z,88.37
2018-01-13T01:54:48.545Z,89.30
2018-01-13T01:57:16.242Z,90.97
2018-01-13T01:59:43.954Z,88.33
2018-01-13T02:02:11.718Z,94.03
2018-01-13T02:04:40.314Z,87.43
2018-01-13T02:07:08.080Z,86.47
2018-01-13T02:09:35.922Z,83.50
2018-01-13T02:12:03.617Z,98.23
2018-01-13T02:14:31.367Z,89.80
2018-01-13T02:16:59.111Z,98.13
2018-01-13T02:19:26.839Z,95.07
2018-01-13T02:21:55.312Z,90.30
2018-01-13T02:24:23.796Z,95.60
2018-01-13T02:26:52.248Z,93.17
2018-01-13T02:29:19.918Z,91.07
2018-01-13T02:31:48.230Z,90.77
2018-01-13T02:34:16.056Z,89.23
2018-01-13T02:36:43.931Z,87.20
2018-01-13T02:39:11.660Z,87.20
2018-01-13T02:41:40.171Z,90.33
2018-01-13T02:44:07.879Z,90.90
2018-01-13T02:46:35.659Z,81.23
2018-01-13T02:49:04.132Z,79.13
2018-01-13T02:51:31.833Z,82.73
2018-01-13T02:53:59.587Z,80.07
2018-01-13T02:56:27.400Z,82.40
2018-01-13T02:58:55.101Z,81.33
2018-01-13T03:01:22.920Z,79.17
2018-01-13T03:03:51.447Z,91.73
2018-01-13T03:06:19.217Z,89.57
2018-01-13T03:08:46.938Z,86.47
2018-01-13T03:11:14.723Z,90.37
2018-01-13T03:13:42.596Z,85.40
2018-01-13T03:16:10.306Z,93.93
2018-01-13T03:18:38.004Z,89.60
2018-01-13T03:21:05.846Z,93.53
2018-01-13T03:23:33.606Z,85.30
2018-01-13T03:26:01.440Z,89.73
2018-01-13T03:28:29.135Z,98.53
2018-01-13T03:30:57.279Z,93.07
2018-01-13T03:33:24.984Z,92.03
2018-01-13T03:35:53.414Z,97.23
2018-01-13T03:38:21.134Z,95.43
2018-01-13T03:40:49.598Z,91.00
2018-01-13T03:43:17.316Z,87.47
2018-01-13T03:45:45.102Z,103.07
2018-01-13T03:48:12.834Z,97.77
2018-01-13T03:50:40.582Z,92.33
2018-01-13T03:53:09.138Z,93.40
2018-01-13T03:55:37.800Z,96.10
2018-01-13T03:58:05.652Z,91.90
2018-01-13T04:00:34.558Z,86.60
2018-01-13T04:03:02.256Z,80.83
2018-01-13T04:05:29.965Z,80.63
2018-01-13T04:07:57.949Z,82.93
2018-01-13T04:10:25.738Z,81.57
2018-01-13T04:12:53.444Z,79.07
2018-01-13T04:15:21.273Z,86.87
2018-01-13T04:17:49.000Z,82.17
2018-01-13T04:20:16.675Z,83.73
2018-01-13T04:22:44.366Z,83.10
2018-01-13T04:25:12.184Z,85.07
2018-01-13T04:27:40.838Z,86.63
2018-01-13T04:30:10.066Z,98.00
2018-01-13T04:32:37.881Z,85.73
2018-01-13T04:35:05.622Z,82.63
2018-01-13T04:37:34.245Z,75.60
2018-01-13T04:40:02.764Z,77.63
2018-01-13T04:42:31.266Z,72.40
2018-01-13T04:44:59.057Z,74.70
2018-01-13T04:47:26.822Z,87.83
2018-01-13T04:49:54.584Z,83.67
2018-01-13T04:52:22.324Z,75.10
2018-01-13T04:54:50.071Z,82.07
2018-01-13T04:57:17.948Z,81.90
2018-01-13T04:59:45.859Z,87.30
2018-01-13T05:02:13.630Z,91.53
2018-01-13T05:04:41.526Z,90.57
2018-01-13T05:07:09.320Z,86.03
2018-01-13T05:09:37.067Z,92.87
2018-01-13T05:12:04.800Z,94.30
2018-01-13T05:14:32.567Z,89.07
2018-01-13T05:17:00.320Z,92.03
2018-01-13T05:19:28.062Z,98.00
2018-01-13T05:21:56.675Z,110.07
2018-01-13T05:24:24.462Z,96.00
2018-01-13T05:26:52.203Z,107.57
2018-01-13T05:29:19.966Z,94.13
2018-01-13T05:31:47.737Z,99.83
2018-01-13T05:34:15.546Z,98.63
2018-01-13T05:36:43.432Z,94.17
2018-01-13T05:39:11.346Z,93.13
2018-01-13T05:41:39.208Z,90.67
2018-01-13T05:44:06.963Z,96.63
2018-01-13T05:46:34.717Z,98.83
2018-01-13T05:49:02.512Z,99.30
2018-01-13T05:51:30.260Z,97.23
2018-01-13T05:53:58.006Z,87.93
2018-01-13T05:56:25.916Z,93.27
2018-01-13T05:58:53.640Z,98.77
2018-01-13T06:01:22.277Z,92.70
2018-01-13T06:03:50.078Z,91.70
2018-01-13T06:06:17.864Z,89.43
2018-01-13T06:08:45.854Z,86.20
2018-01-13T06:11:13.666Z,88.13
2018-01-13T06:13:42.032Z,79.63
2018-01-13T06:16:09.772Z,74.97
2018-01-13T06:18:37.528Z,80.87
2018-01-13T06:21:05.298Z,71.80
2018-01-13T06:23:33.030Z,77.30
2018-01-13T06:26:00.773Z,82.13
2018-01-13T06:28:28.527Z,79.60
2018-01-13T06:30:56.225Z,70.20
2018-01-13T06:33:23.960Z,71.53
2018-01-13T06:35:51.810Z,73.93
2018-01-13T06:38:20.382Z,72.67
2018-01-13T06:40:48.142Z,76.90
2018-01-13T06:43:15.872Z,76.40
2018-01-13T06:45:43.701Z,80.83
2018-01-13T06:48:12.316Z,77.67
2018-01-13T06:50:40.102Z,76.43
2018-01-13T06:53:07.808Z,69.27
2018-01-13T06:55:35.696Z,81.63
2018-01-13T06:58:04.162Z,77.37
2018-01-13T07:00:32.660Z,74.77
2018-01-13T07:03:00.511Z,79.53
2018-01-13T07:05:29.035Z,78.07
2018-01-13T07:07:56.805Z,79.40
2018-01-13T07:10:24.666Z,78.50
2018-01-13T07:12:52.477Z,81.43
2018-01-13T07:15:20.305Z,81.07
2018-01-13T07:17:48.123Z,84.47
2018-01-13T07:20:16.594Z,81.40
2018-01-13T07:22:44.364Z,81.47
2018-01-13T07:25:12.923Z,79.07
2018-01-13T07:27:40.721Z,84.17
2018-01-13T07:30:09.177Z,85.83
2018-01-13T07:32:37.022Z,97.07
2018-01-13T07:35:04.750Z,107.40
2018-01-13T07:37:32.466Z,90.83
2018-01-13T07:40:00.164Z,86.20
2018-01-13T07:42:28.006Z,85.10
2018-01-13T07:44:55.757Z,95.57
2018-01-13T07:47:23.465Z,88.43
2018-01-13T07:49:52.147Z,92.63
2018-01-13T07:52:20.994Z,93.60
2018-01-13T07:54:48.716Z,87.80
2018-01-13T07:57:16.466Z,91.23
2018-01-13T07:59:44.212Z,99.10
2018-01-13T08:02:12.738Z,97.67
2018-01-13T08:04:40.507Z,98.60
2018-01-13T08:07:08.342Z,95.27
2018-01-13T08:09:36.108Z,98.33
2018-01-13T08:12:03.918Z,93.00
2018-01-13T08:14:31.637Z,97.60
2018-01-13T08:17:00.241Z,98.30
2018-01-13T08:19:28.615Z,96.43
2018-01-13T08:21:57.050Z,89.50
2018-01-13T08:24:24.800Z,98.03
2018-01-13T08:26:52.608Z,93.57
2018-01-13T08:29:20.366Z,90.53
2018-01-13T08:31:48.853Z,93.97
2018-01-13T08:34:16.580Z,96.53
2018-01-13T08:36:44.257Z,105.10
2018-01-13T08:39:12.887Z,108.93
2018-01-13T08:41:40.588Z,113.23
2018-01-13T08:44:08.568Z,90.60
2018-01-13T08:46:37.095Z,94.23
2018-01-13T08:49:04.945Z,81.87
2018-01-13T08:51:32.794Z,93.90
2018-01-13T08:54:00.613Z,92.47
2018-01-13T08:56:28.400Z,103.73
2018-01-13T08:58:57.765Z,91.60
2018-01-13T09:01:29.558Z,94.70
2018-01-13T09:03:57.349Z,97.13
2018-01-13T09:06:25.985Z,95.00
2018-01-13T09:08:53.722Z,91.03
2018-01-13T09:11:21.560Z,88.83
2018-01-13T09:13:50.055Z,92.00
2018-01-13T09:16:17.830Z,97.57
2018-01-13T09:18:46.362Z,94.70
2018-01-13T09:21:14.236Z,93.23
2018-01-13T09:23:42.063Z,82.10
2018-01-13T09:26:09.769Z,81.27
2018-01-13T09:28:37.521Z,91.67
2018-01-13T09:31:05.255Z,86.83
2018-01-13T09:33:32.963Z,80.40
2018-01-13T09:36:00.694Z,86.63
2018-01-13T09:38:28.521Z,77.37
2018-01-13T09:40:56.292Z,80.23
2018-01-13T09:43:24.046Z,83.03
2018-01-13T09:45:51.849Z,76.83
2018-01-13T09:48:19.614Z,88.00
2018-01-13T09:50:47.325Z,74.60
2018-01-13T09:53:15.054Z,76.40
2018-01-13T09:55:43.582Z,80.50
2018-01-13T09:58:11.422Z,85.00
2018-01-13T10:00:39.235Z,85.90
2018-01-13T10:03:07.095Z,84.37
2018-01-13T10:05:34.850Z,83.17
2018-01-13T10:08:02.660Z,83.47
2018-01-13T10:10:30.369Z,79.50
2018-01-13T10:12:58.249Z,76.23
2018-01-13T10:15:28.069Z,73.43
2018-01-13T10:17:55.841Z,78.83
2018-01-13T10:20:23.573Z,74.27
2018-01-13T10:22:51.944Z,66.30
2018-01-13T10:25:20.398Z,73.50
2018-01-13T10:27:48.164Z,71.07
2018-01-13T10:30:15.932Z,72.90
2018-01-13T10:32:43.629Z,73.23
2018-01-13T10:35:12.201Z,73.70
2018-01-13T10:37:40.840Z,69.97
2018-01-13T10:40:08.574Z,69.20
2018-01-13T10:42:36.354Z,68.53
2018-01-13T10:45:04.154Z,71.33
2018-01-13T10:47:31.961Z,67.87
2018-01-13T10:50:00.458Z,72.33
2018-01-13T10:52:28.177Z,70.63
2018-01-13T10:54:55.956Z,323.43
2018-01-13T10:57:23.689Z,73.03
2018-01-13T10:59:51.426Z,57.50
2018-01-13T11:02:19.339Z,57.17
2018-01-13T11:04:47.314Z,60.53
2018-01-13T11:07:16.230Z,60.97
2018-01-13T11:09:44.002Z,56.57
2018-01-13T11:12:11.804Z,59.80
2018-01-13T11:14:39.501Z,62.63
2018-01-13T11:17:07.304Z,63.03
2018-01-13T11:19:35.153Z,64.00
2018-01-13T11:22:03.666Z,70.93
2018-01-13T11:24:31.404Z,66.40
2018-01-13T11:26:59.142Z,68.53
2018-01-13T11:29:26.903Z,73.73
2018-01-13T11:31:54.636Z,66.83
2018-01-13T11:34:22.411Z,72.50
2018-01-13T11:36:50.155Z,68.60
2018-01-13T11:39:18.065Z,69.73
2018-01-13T11:41:45.789Z,59.93
2018-01-13T11:44:13.564Z,74.57
2018-01-13T11:46:41.293Z,69.40
2018-01-13T11:49:09.070Z,68.00
2018-01-13T11:51:36.873Z,68.83
2018-01-13T11:54:04.553Z,70.97
2018-01-13T11:56:32.956Z,77.70
2018-01-13T11:59:01.094Z,61.23
2018-01-13T12:01:29.229Z,65.43
2018-01-13T12:03:56.968Z,60.40
2018-01-13T12:06:24.778Z,56.80
2018-01-13T12:08:52.646Z,63.27
2018-01-13T12:11:20.345Z,71.53
2018-01-13T12:13:48.187Z,63.93
2018-01-13T12:16:15.973Z,59.67
2018-01-13T12:18:44.451Z,53.10
2018-01-13T12:21:12.984Z,58.50
2018-01-13T12:23:40.708Z,56.97
2018-01-13T12:26:08.531Z,57.37
2018-01-13T12:28:36.411Z,52.50
2018-01-13T12:31:04.109Z,63.63
2018-01-13T12:33:31.815Z,61.57
2018-01-13T12:35:59.558Z,59.23
2018-01-13T12:38:27.299Z,57.27
2018-01-13T12:40:55.141Z,58.87
2018-01-13T12:43:23.748Z,63.67
2018-01-13T12:45:51.615Z,53.90
2018-01-13T12:48:20.169Z,57.03
2018-01-13T12:50:48.037Z,50.73
2018-01-13T12:53:17.129Z,45.50
2018-01-13T12:55:44.956Z,43.77
2018-01-13T12:58:13.686Z,43.03
2018-01-13T13:00:41.529Z,52.73
2018-01-13T13:03:09.272Z,50.80
2018-01-13T13:05:37.044Z,51.43
2018-01-13T13:08:04.774Z,54.77
2018-01-13T13:10:32.470Z,54.53
2018-01-13T13:13:01.001Z,59.33
2018-01-13T13:15:29.489Z,69.23
2018-01-13T13:17:57.991Z,57.20
2018-01-13T13:20:26.405Z,51.60
2018-01-13T13:22:54.461Z,61.50
2018-01-13T13:25:22.150Z,50.50
2018-01-13T13:27:50.169Z,48.90
2018-01-13T13:30:18.231Z,46.63
2018-01-13T13:32:46.730Z,50.20
2018-01-13T13:35:15.017Z,47.40
2018-01-13T13:37:42.788Z,51.90
2018-01-13T13:40:10.529Z,46.33
2018-01-13T13:42:39.277Z,53.90
2018-01-13T13:45:06.987Z,45.40
2018-01-13T13:47:34.729Z,50.23
2018-01-13T13:50:02.597Z,123.97
2018-01-13T13:52:30.369Z,51.30
2018-01-13T13:54:58.152Z,39.90
2018-01-13T13:57:25.872Z,59.50
2018-01-13T13:59:53.583Z,50.27
2018-01-13T14:02:21.325Z,46.10
2018-01-13T14:04:49.065Z,46.17
2018-01-13T14:07:16.842Z,57.13
2018-01-13T14:09:45.331Z,56.17
2018-01-13T14:42:29.856Z,24.50
2018-01-13T14:44:57.441Z,23.90
2018-01-13T14:47:24.995Z,23.83
2018-01-13T14:49:52.527Z,28.27
2018-01-13T14:52:20.056Z,28.10
2018-01-13T14:54:47.569Z,31.13
2018-01-13T14:57:15.079Z,34.00
2018-01-13T16:15:14.595Z,12.83
2018-01-13T16:17:42.137Z,11.27
2018-01-13T16:20:09.687Z,11.10
2018-01-13T16:22:37.981Z,10.17
2018-01-13T16:25:05.508Z,12.20
2018-01-13T16:27:33.010Z,11.07
2018-01-13T16:30:00.549Z,11.80
2018-01-13T16:32:28.836Z,13.30
2018-01-13T16:34:57.108Z,14.53
2018-01-13T16:37:25.427Z,17.30
2018-01-13T16:39:52.961Z,17.57
2018-01-13T16:42:20.493Z,17.03
2018-01-13T16:44:48.803Z,15.93
2018-01-13T16:47:16.340Z,15.63
2018-01-13T16:49:43.879Z,16.73
2018-01-13T16:52:13.026Z,17.67
2018-01-13T16:54:40.574Z,18.63
2018-01-13T16:57:08.140Z,17.93
2018-01-13T16:59:35.689Z,19.50
2018-01-13T17:02:03.229Z,17.80
2018-01-13T17:04:30.763Z,20.87
2018-01-13T17:06:58.319Z,22.23
2018-01-13T17:09:25.893Z,20.20
2018-01-13T17:11:53.455Z,24.47
2018-01-13T17:14:21.808Z,21.93
2018-01-13T17:16:49.357Z,23.27
2018-01-13T17:19:16.921Z,20.73
2018-01-13T17:21:44.478Z,22.23
2018-01-13T17:24:13.248Z,24.03
2018-01-13T17:26:40.771Z,25.33
2018-01-13T17:29:09.863Z,25.10
2018-01-13T17:31:38.185Z,26.43
2018-01-13T17:34:06.499Z,21.23
2018-01-13T17:36:34.829Z,25.30
2018-01-13T17:39:02.362Z,29.63
2018-01-13T17:41:30.749Z,27.77
2018-01-13T17:43:58.305Z,28.93
2018-01-13T17:46:25.849Z,27.83
2018-01-13T17:48:53.451Z,26.20
2018-01-13T17:51:20.989Z,24.47
2018-01-13T17:53:48.612Z,25.77
2018-01-13T17:56:16.181Z,27.33
2018-01-13T17:58:44.490Z,28.27
2018-01-13T18:01:12.089Z,26.50
2018-01-13T18:03:39.631Z,29.63
2018-01-13T18:06:07.167Z,27.40
2018-01-13T18:08:34.763Z,24.90
2018-01-13T18:11:02.311Z,25.60
2018-01-13T18:13:29.846Z,25.23
2018-01-13T18:15:58.235Z,26.13
2018-01-13T18:18:25.804Z,25.87
2018-01-13T18:20:53.345Z,27.03
2018-01-13T18:23:20.895Z,29.13
2018-01-13T18:25:48.436Z,24.93
2018-01-13T18:28:15.967Z,26.87
2018-01-13T18:30:43.536Z,26.20
2018-01-13T18:33:11.085Z,27.10
2018-01-13T18:35:38.653Z,24.10
2018-01-13T18:38:06.544Z,28.23
2018-01-13T18:40:34.078Z,24.27
2018-01-13T18:43:01.641Z,27.97
2018-01-13T18:45:29.195Z,25.67
2018-01-13T18:47:56.739Z,26.90
2018-01-13T18:50:24.284Z,26.13
2018-01-13T18:52:51.817Z,27.00
2018-01-13T18:55:19.392Z,25.63
2018-01-13T18:57:46.923Z,28.87
2018-01-13T19:00:15.304Z,28.87
2018-01-13T19:02:42.847Z,29.80
2018-01-13T19:05:10.421Z,27.63
2018-01-13T19:07:38.780Z,29.43
2018-01-13T19:10:07.139Z,26.33
2018-01-13T19:12:34.673Z,26.97
2018-01-13T19:15:02.260Z,23.87
2018-01-13T19:17:29.836Z,24.50
2018-01-13T19:19:57.453Z,28.07
2018-01-13T19:22:25.062Z,33.53
2018-01-13T19:24:52.639Z,26.50
2018-01-13T19:27:20.203Z,40.70
2018-01-13T19:29:47.755Z,63.27
2018-01-13T19:32:16.112Z,56.60
2018-01-13T19:34:43.687Z,54.50
2018-01-13T19:37:12.015Z,47.60
2018-01-13T19:39:39.616Z,49.50
2018-01-13T19:42:07.961Z,36.07
2018-01-13T19:44:35.585Z,31.80
2018-01-13T19:47:03.153Z,26.40
2018-01-13T19:49:30.684Z,28.00
2018-01-13T19:51:59.009Z,27.67
2018-01-13T19:54:26.572Z,25.63
2018-01-13T19:56:54.117Z,26.10
2018-01-13T19:59:22.446Z,23.40
2018-01-13T20:01:50.028Z,23.93
2018-01-13T20:04:18.413Z,23.57
2018-01-13T20:06:45.965Z,23.17
2018-01-13T20:09:13.496Z,33.17
2018-01-13T20:11:41.055Z,22.13
2018-01-13T20:14:08.593Z,21.23
2018-01-13T20:16:36.162Z,21.17
2018-01-13T20:19:03.712Z,22.53
2018-01-13T20:21:31.301Z,21.67
2018-01-13T20:23:58.876Z,18.90
2018-01-13T20:26:26.425Z,19.47
2018-01-13T20:28:55.542Z,21.07
2018-01-13T20:31:23.088Z,20.10
2018-01-13T20:33:50.660Z,21.83
2018-01-13T20:36:18.227Z,23.40
2018-01-13T20:38:45.782Z,22.07
2018-01-13T20:41:13.376Z,23.73
2018-01-13T20:43:42.162Z,25.83
2018-01-13T20:46:09.715Z,19.43
2018-01-13T20:48:37.248Z,20.40
2018-01-13T20:51:05.870Z,20.07
2018-01-13T20:53:33.469Z,23.73
2018-01-13T20:56:01.019Z,30.60
2018-01-13T20:58:28.683Z,35.80
2018-01-13T21:00:56.221Z,44.47
2018-01-13T21:03:23.783Z,43.73
2018-01-13T21:05:51.345Z,22.80
2018-01-13T21:08:18.904Z,21.67
2018-01-13T21:10:46.473Z,22.57
2018-01-13T21:13:14.042Z,21.73
2018-01-13T21:15:41.618Z,23.20
2018-01-13T21:18:09.932Z,22.70
2018-01-13T21:20:37.522Z,23.30
2018-01-13T21:23:05.048Z,20.03
2018-01-13T21:25:32.586Z,20.53
2018-01-13T21:28:00.926Z,21.17
2018-01-13T21:30:28.460Z,22.17
2018-01-13T21:32:56.833Z,22.47
2018-01-13T21:35:24.402Z,20.83
2018-01-13T21:37:51.928Z,24.03
2018-01-13T21:40:19.458Z,21.80
2018-01-13T21:42:47.053Z,25.03
2018-01-13T21:45:15.844Z,20.67
2018-01-13T21:47:43.400Z,21.23
2018-01-13T21:50:11.007Z,21.87
2018-01-13T21:52:39.712Z,21.60
2018-01-13T21:55:07.227Z,18.83
2018-01-13T21:57:34.811Z,23.77
2018-01-13T22:00:02.338Z,21.10
2018-01-13T22:02:29.882Z,18.30
2018-01-13T22:04:57.435Z,20.47
2018-01-13T22:07:24.988Z,20.47
2018-01-13T22:09:52.542Z,20.33
2018-01-13T22:12:20.877Z,19.67
2018-01-13T22:14:49.177Z,16.43
2018-01-13T22:17:16.747Z,16.97
2018-01-13T22:19:44.366Z,18.23
2018-01-13T22:22:11.896Z,18.93
2018-01-13T22:24:39.430Z,18.70
2018-01-13T22:27:07.752Z,19.00
2018-01-13T22:29:35.283Z,17.97
2018-01-13T22:32:02.879Z,18.63
2018-01-13T22:34:30.458Z,19.47
2018-01-13T22:36:58.041Z,17.67
2018-01-13T22:39:25.570Z,20.33
2018-01-13T22:41:53.135Z,18.73
2018-01-13T22:44:20.691Z,16.23
2018-01-13T22:46:48.221Z,15.27
2018-01-13T22:49:15.830Z,16.70
2018-01-13T22:51:43.363Z,17.50
2018-01-13T22:54:11.690Z,18.00
2018-01-13T22:56:40.031Z,18.13
2018-01-13T22:59:07.563Z,15.73
2018-01-13T23:01:35.088Z,16.17
2018-01-13T23:04:03.411Z,18.67
2018-01-13T23:06:30.949Z,18.97
2018-01-13T23:08:58.507Z,16.10
2018-01-13T23:11:27.104Z,19.53
2018-01-13T23:13:54.644Z,17.90
2018-01-13T23:16:22.194Z,20.47
2018-01-13T23:18:50.588Z,16.57
2018-01-13T23:21:18.147Z,17.03
2018-01-13T23:23:45.995Z,17.33
2018-01-13T23:26:13.559Z,20.80
2018-01-13T23:28:41.095Z,17.63
2018-01-13T23:31:08.689Z,18.00
2018-01-13T23:33:37.008Z,18.00
2018-01-13T23:36:04.549Z,18.57
2018-01-13T23:38:32.130Z,17.40
2018-01-13T23:40:59.783Z,19.53
2018-01-13T23:43:27.351Z,20.00
2018-01-13T23:45:54.945Z,20.27
2018-01-13T23:48:22.545Z,19.03
2018-01-13T23:50:50.095Z,16.47
2018-01-13T23:53:17.627Z,16.07
2018-01-13T23:55:45.359Z,17.10
2018-01-13T23:58:12.909Z,18.33
